Time;durP1;ratioP1;P1;durP2;ratioP2;P2;SDS_P1;SDS_P2;PMS_P1;PMS_P2;Temp;Humidity;BMP_temperature;BMP_pressure;BME280_temperature;BME280_humidity;BME280_pressure;Samples;Min_cycle;Max_cycle;Signal;HPM_P1;HPM_P2
2023/10/19 00:01:25;;;;;;;;;;;;;;;;;;5039382;28;19917;-59
2023/10/19 00:03:51;;;;;;;;;;;;;;;;;;5045466;28;19999;-60
2023/10/19 00:06:19;;;;;;;;;;;;;;;;;;5050419;28;19995;-60
2023/10/19 00:08:45;;;;;;;;;;;;;;;;;;5050640;28;20027;-59
2023/10/19 00:11:21;;;;;;;;;;;;;;;;;;5050434;28;19913;-59
2023/10/19 00:13:49;;;;;;;;;;;;;;;;;;5052736;28;19958;-60
2023/10/19 00:16:22;;;;;;;;;;;;;;;;;;5040025;28;20052;-59
2023/10/19 00:18:48;;;;;;;;;;;;;;;;;;5040954;28;19920;-60
2023/10/19 00:21:23;;;;;;;;;;;;;;;;;;5043662;28;20028;-59
2023/10/19 00:23:49;;;;;;;;;;;;;;;;;;5047992;28;19940;-60
2023/10/19 00:26:19;;;;;;;;;;;;;;;;;;5056381;28;19999;-60
2023/10/19 00:28:46;;;;;;;;;;;;;;;;;;5050690;28;19917;-60
2023/10/19 00:31:13;;;;;;;;;;;;;;;;;;5037246;28;19917;-59
2023/10/19 00:33:39;;;;;;;;;;;;;;;;;;5054746;28;19917;-60
2023/10/19 00:36:08;;;;;;;;;;;;;;;;;;5046623;28;19978;-58
2023/10/19 00:43:36;;;;;;;;;;;;;;;;;;5048806;28;20281;-60
2023/10/19 00:46:09;;;;;;;;;;;;;;;;;;5048518;28;19924;-59
2023/10/19 00:48:35;;;;;;;;;;;;;;;;;;5051925;28;19916;-59
2023/10/19 00:51:22;;;;;;;;;;;;;;;;;;5048500;28;19940;-60
2023/10/19 00:53:49;;;;;;;;;;;;;;;;;;5044629;28;20423;-58
2023/10/19 00:56:17;;;;;;;;;;;;;;;;;;5051449;28;19935;-58
2023/10/19 00:58:47;;;;;;;;;;;;;;;;;;5051046;28;19929;-60
2023/10/19 01:01:14;;;;;;;;;;;;;;;;;;5044658;28;19913;-60
2023/10/19 01:03:40;;;;;;;;;;;;;;;;;;5039242;28;20051;-58
2023/10/19 01:06:09;;;;;;;;;;;;;;;;;;5039715;28;20051;-60
2023/10/19 01:08:41;;;;;;;;;;;;;;;;;;5052868;28;19936;-60
2023/10/19 01:11:10;;;;;;;;;;;;;;;;;;5053607;28;20015;-60
2023/10/19 01:13:36;;;;;;;;;;;;;;;;;;5034891;28;20380;-60
2023/10/19 01:16:03;;;;;;;;;;;;;;;;;;5052702;28;19917;-60
2023/10/19 01:18:32;;;;;;;;;;;;;;;;;;5048159;28;19914;-59
2023/10/19 01:21:06;;;;;;;;;;;;;;;;;;5046110;28;20019;-58
2023/10/19 01:23:35;;;;;;;;;;;;;;;;;;5037985;28;19925;-59
2023/10/19 01:26:07;;;;;;;;;;;;;;;;;;5051052;28;20091;-59
2023/10/19 01:28:42;;;;;;;;;;;;;;;;;;5053525;28;20367;-60
2023/10/19 01:31:08;;;;;;;;;;;;;;;;;;5061746;28;20023;-60
2023/10/19 01:33:34;;;;;;;;;;;;;;;;;;5048681;28;20003;-60
2023/10/19 01:39:04;;;;;;;;;;;;;;;;;;4953459;28;19969;-59
2023/10/19 01:41:35;;;;;;;;;;;;;;;;;;5032185;28;20011;-60
2023/10/19 01:44:07;;;;;;;;;;;;;;;;;;5049448;28;20057;-58
2023/10/19 01:46:33;;;;;;;;;;;;;;;;;;5043230;28;20277;-59
2023/10/19 01:49:01;;;;;;;;;;;;;;;;;;5039275;28;19917;-59
2023/10/19 01:51:28;;;;;;;;;;;;;;;;;;5048473;28;20301;-59
2023/10/19 01:53:55;;;;;;;;;;;;;;;;;;5048462;28;19917;-60
2023/10/19 01:56:21;;;;;;;;;;;;;;;;;;5057655;28;19916;-59
2023/10/19 01:58:47;;;;;;;;;;;;;;;;;;5050500;28;20388;-59
2023/10/19 02:03:42;;;;;;;;;;;;;;;;;;5044029;28;19920;-60
2023/10/19 02:06:17;;;;;;;;;;;;;;;;;;5044299;28;19939;-60
2023/10/19 02:08:44;;;;;;;;;;;;;;;;;;5037202;28;20391;-59
2023/10/19 02:11:18;;;;;;;;;;;;;;;;;;5042940;28;20328;-59
2023/10/19 02:13:46;;;;;;;;;;;;;;;;;;5046981;28;20438;-61
2023/10/19 02:16:12;;;;;;;;;;;;;;;;;;5040656;28;20190;-60
2023/10/19 02:18:38;;;;;;;;;;;;;;;;;;5051774;28;19923;-61
2023/10/19 02:21:07;;;;;;;;;;;;;;;;;;5042656;28;19944;-61
2023/10/19 02:23:36;;;;;;;;;;;;;;;;;;5040135;28;20014;-61
2023/10/19 02:26:03;;;;;;;;;;;;;;;;;;5043514;28;19912;-60
2023/10/19 02:28:31;;;;;;;;;;;;;;;;;;5047148;28;19967;-61
2023/10/19 02:30:57;;;;;;;;;;;;;;;;;;5036030;28;19920;-62
2023/10/19 02:33:26;;;;;;;;;;;;;;;;;;5048541;28;19960;-61
2023/10/19 02:35:52;;;;;;;;;;;;;;;;;;5048659;28;20569;-61
2023/10/19 02:38:18;;;;;;;;;;;;;;;;;;5047807;28;19975;-61
2023/10/19 02:40:46;;;;;;;;;;;;;;;;;;5050424;28;19974;-61
2023/10/19 02:43:11;;;;;;;;;;;;;;;;;;5047210;28;20508;-61
2023/10/19 02:45:37;;;;;;;;;;;;;;;;;;5047946;28;20003;-61
2023/10/19 02:48:04;;;;;;;;;;;;;;;;;;5051794;28;19913;-61
2023/10/19 02:50:31;;;;;;;;;;;;;;;;;;5038375;28;19913;-62
2023/10/19 02:52:56;;;;;;;;;;;;;;;;;;5055285;28;19916;-61
2023/10/19 02:55:23;;;;;;;;;;;;;;;;;;5055462;28;19956;-61
2023/10/19 02:57:50;;;;;;;;;;;;;;;;;;5040249;28;20377;-61
2023/10/19 03:00:19;;;;;;;;;;;;;;;;;;5050511;28;20599;-61
2023/10/19 03:02:45;;;;;;;;;;;;;;;;;;5049914;28;19923;-60
2023/10/19 03:05:14;;;;;;;;;;;;;;;;;;5048329;28;19917;-61
2023/10/19 03:07:43;;;;;;;;;;;;;;;;;;5053644;28;19916;-61
2023/10/19 03:10:22;;;;;;;;;;;;;;;;;;5045289;28;19921;-61
2023/10/19 03:12:49;;;;;;;;;;;;;;;;;;5039725;28;19912;-61
2023/10/19 03:15:15;;;;;;;;;;;;;;;;;;5053294;28;19909;-62
2023/10/19 03:17:41;;;;;;;;;;;;;;;;;;5044217;28;19913;-61
2023/10/19 03:20:07;;;;;;;;;;;;;;;;;;5042382;28;20008;-61
2023/10/19 03:22:34;;;;;;;;;;;;;;;;;;5050106;28;19921;-60
2023/10/19 03:25:48;;;;;;;;;;;;;;;;;;5045649;28;19956;-60
2023/10/19 03:27:46;;;;;;;;;;;;;;;;;;5048984;28;19913;-60
2023/10/19 03:30:18;;;;;;;;;;;;;;;;;;5052752;28;19932;-60
2023/10/19 03:32:44;;;;;;;;;;;;;;;;;;5047107;28;19928;-60
2023/10/19 03:35:15;;;;;;;;;;;;;;;;;;5047679;28;19920;-60
2023/10/19 03:37:41;;;;;;;;;;;;;;;;;;5054025;28;19917;-60
2023/10/19 03:40:09;;;;;;;;;;;;;;;;;;5044573;28;19929;-61
2023/10/19 03:42:40;;;;;;;;;;;;;;;;;;5049753;28;19917;-60
2023/10/19 03:45:12;;;;;;;;;;;;;;;;;;5046561;28;19996;-60
2023/10/19 03:47:38;;;;;;;;;;;;;;;;;;5052059;28;20289;-60
2023/10/19 03:50:06;;;;;;;;;;;;;;;;;;5057758;28;19924;-60
2023/10/19 03:52:32;;;;;;;;;;;;;;;;;;5044655;28;20003;-60
2023/10/19 03:54:59;;;;;;;;;;;;;;;;;;5052897;28;20390;-60
2023/10/19 03:57:29;;;;;;;;;;;;;;;;;;5054202;28;19913;-60
2023/10/19 03:59:57;;;;;;;;;;;;;;;;;;5045111;28;19924;-60
2023/10/19 04:02:23;;;;;;;;;;;;;;;;;;5040707;28;19921;-60
2023/10/19 04:04:50;;;;;;;;;;;;;;;;;;5042961;28;20015;-60
2023/10/19 04:07:25;;;;;;;;;;;;;;;;;;5027143;28;19932;-60
2023/10/19 04:10:09;;;;;;;;;;;;;;;;;;5046469;28;19912;-61
2023/10/19 04:12:38;;;;;;;;;;;;;;;;;;5042393;28;19913;-60
2023/10/19 04:17:36;;;;;;;;;;;;;;;;;;5046418;28;19939;-60
2023/10/19 04:20:09;;;;;;;;;;;;;;;;;;5048411;28;19962;-60
2023/10/19 04:22:35;;;;;;;;;;;;;;;;;;5047219;28;19913;-60
2023/10/19 04:25:01;;;;;;;;;;;;;;;;;;5048704;28;19967;-60
2023/10/19 04:27:27;;;;;;;;;;;;;;;;;;5045099;28;20346;-60
2023/10/19 04:29:54;;;;;;;;;;;;;;;;;;5048959;28;19946;-60
2023/10/19 04:32:25;;;;;;;;;;;;;;;;;;5050718;28;20377;-61
2023/10/19 04:34:51;;;;;;;;;;;;;;;;;;5049357;28;20019;-61
2023/10/19 04:37:18;;;;;;;;;;;;;;;;;;5053891;28;20009;-61
2023/10/19 04:39:44;;;;;;;;;;;;;;;;;;5047763;28;19913;-61
2023/10/19 04:42:10;;;;;;;;;;;;;;;;;;5052888;28;19956;-61
2023/10/19 04:44:36;;;;;;;;;;;;;;;;;;5044472;28;19956;-61
2023/10/19 04:47:02;;;;;;;;;;;;;;;;;;5043966;28;20433;-61
2023/10/19 04:49:28;;;;;;;;;;;;;;;;;;5043313;28;19917;-61
2023/10/19 04:51:54;;;;;;;;;;;;;;;;;;5048464;28;19923;-61
2023/10/19 04:54:20;;;;;;;;;;;;;;;;;;5049164;28;20480;-61
2023/10/19 04:56:46;;;;;;;;;;;;;;;;;;5048650;28;20369;-60
2023/10/19 04:59:12;;;;;;;;;;;;;;;;;;5045081;28;20065;-60
2023/10/19 05:01:40;;;;;;;;;;;;;;;;;;5040101;28;19963;-60
2023/10/19 05:04:06;;;;;;;;;;;;;;;;;;5045431;28;19917;-60
2023/10/19 05:06:32;;;;;;;;;;;;;;;;;;5047387;28;20006;-61
2023/10/19 05:08:57;;;;;;;;;;;;;;;;;;5047859;28;20436;-61
2023/10/19 05:11:23;;;;;;;;;;;;;;;;;;5048825;28;20032;-61
2023/10/19 05:13:49;;;;;;;;;;;;;;;;;;5045202;28;19920;-61
2023/10/19 05:16:15;;;;;;;;;;;;;;;;;;5052759;28;19913;-60
2023/10/19 05:18:41;;;;;;;;;;;;;;;;;;5051242;28;19924;-60
2023/10/19 05:21:07;;;;;;;;;;;;;;;;;;5041804;28;19917;-62
2023/10/19 05:23:33;;;;;;;;;;;;;;;;;;5051843;28;19920;-61
2023/10/19 05:25:59;;;;;;;;;;;;;;;;;;5052283;28;19947;-61
2023/10/19 05:28:25;;;;;;;;;;;;;;;;;;5052533;28;19930;-61
2023/10/19 05:30:51;;;;;;;;;;;;;;;;;;5047898;28;19917;-61
2023/10/19 05:33:20;;;;;;;;;;;;;;;;;;5050719;28;20047;-61
2023/10/19 05:35:46;;;;;;;;;;;;;;;;;;5047204;28;20055;-61
2023/10/19 05:38:12;;;;;;;;;;;;;;;;;;5046629;28;20378;-61
2023/10/19 05:40:38;;;;;;;;;;;;;;;;;;5041540;28;19909;-61
2023/10/19 05:43:05;;;;;;;;;;;;;;;;;;5046688;28;19925;-60
2023/10/19 05:45:32;;;;;;;;;;;;;;;;;;5047399;28;19917;-60
2023/10/19 05:47:58;;;;;;;;;;;;;;;;;;5045583;28;19908;-60
2023/10/19 05:50:24;;;;;;;;;;;;;;;;;;5050803;28;19938;-60
2023/10/19 05:52:51;;;;;;;;;;;;;;;;;;5051902;28;19909;-60
2023/10/19 05:55:17;;;;;;;;;;;;;;;;;;5051650;28;20276;-59
2023/10/19 05:57:44;;;;;;;;;;;;;;;;;;5034306;28;20007;-60
2023/10/19 06:00:12;;;;;;;;;;;;;;;;;;5048802;28;20325;-60
2023/10/19 06:02:38;;;;;;;;;;;;;;;;;;5051969;28;19947;-60
2023/10/19 06:05:05;;;;;;;;;;;;;;;;;;5049705;28;19952;-61
2023/10/19 06:07:32;;;;;;;;;;;;;;;;;;5046638;28;20440;-60
2023/10/19 06:10:00;;;;;;;;;;;;;;;;;;5049515;28;20054;-60
2023/10/19 06:12:26;;;;;;;;;;;;;;;;;;5051661;28;19913;-60
2023/10/19 06:14:52;;;;;;;;;;;;;;;;;;5051742;28;19955;-59
2023/10/19 06:17:19;;;;;;;;;;;;;;;;;;5051656;28;19922;-60
2023/10/19 06:19:45;;;;;;;;;;;;;;;;;;5049900;28;19912;-61
2023/10/19 06:22:12;;;;;;;;;;;;;;;;;;5045859;28;19913;-61
2023/10/19 06:24:38;;;;;;;;;;;;;;;;;;5047805;28;19928;-60
2023/10/19 06:27:04;;;;;;;;;;;;;;;;;;5049811;28;19952;-61
2023/10/19 06:29:29;;;;;;;;;;;;;;;;;;5039207;28;19935;-60
2023/10/19 06:31:55;;;;;;;;;;;;;;;;;;5045283;28;20360;-60
2023/10/19 06:34:21;;;;;;;;;;;;;;;;;;5053447;28;19951;-61
2023/10/19 06:36:47;;;;;;;;;;;;;;;;;;5049561;28;19912;-60
2023/10/19 06:39:13;;;;;;;;;;;;;;;;;;5043954;28;20000;-60
2023/10/19 06:41:39;;;;;;;;;;;;;;;;;;5047945;28;20380;-61
2023/10/19 06:44:05;;;;;;;;;;;;;;;;;;5048834;28;19924;-60
2023/10/19 06:46:31;;;;;;;;;;;;;;;;;;5051238;28;19909;-60
2023/10/19 06:49:00;;;;;;;;;;;;;;;;;;5051137;28;19935;-60
2023/10/19 06:51:26;;;;;;;;;;;;;;;;;;5050020;28;19913;-61
2023/10/19 06:53:52;;;;;;;;;;;;;;;;;;5049289;28;20488;-59
2023/10/19 06:56:18;;;;;;;;;;;;;;;;;;5051145;28;19936;-58
2023/10/19 06:58:45;;;;;;;;;;;;;;;;;;5046397;28;19912;-59
2023/10/19 07:01:11;;;;;;;;;;;;;;;;;;5049769;28;19908;-58
2023/10/19 07:03:36;;;;;;;;;;;;;;;;;;5050909;28;19923;-58
2023/10/19 07:06:02;;;;;;;;;;;;;;;;;;5050800;28;19955;-58
2023/10/19 07:08:28;;;;;;;;;;;;;;;;;;5049361;28;19952;-58
2023/10/19 07:10:54;;;;;;;;;;;;;;;;;;5047680;28;20406;-58
2023/10/19 07:13:21;;;;;;;;;;;;;;;;;;5050344;28;20335;-58
2023/10/19 07:15:47;;;;;;;;;;;;;;;;;;5047099;28;19921;-58
2023/10/19 07:18:13;;;;;;;;;;;;;;;;;;5045886;28;20005;-58
2023/10/19 07:20:39;;;;;;;;;;;;;;;;;;5039687;28;19913;-58
2023/10/19 07:23:26;;;;;;;;;;;;;;;;;;5047789;28;20857;-58
2023/10/19 07:25:56;;;;;;;;;;;;;;;;;;5050038;28;19984;-58
2023/10/19 07:28:21;;;;;;;;;;;;;;;;;;5050975;28;19919;-58
2023/10/19 07:30:48;;;;;;;;;;;;;;;;;;5050482;28;19916;-58
2023/10/19 07:33:17;;;;;;;;;;;;;;;;;;5049887;28;19920;-58
2023/10/19 07:35:43;;;;;;;;;;;;;;;;;;5050837;28;19983;-58
2023/10/19 07:38:10;;;;;;;;;;;;;;;;;;5051825;28;20284;-58
2023/10/19 07:40:36;;;;;;;;;;;;;;;;;;5051320;28;20380;-58
2023/10/19 07:43:03;;;;;;;;;;;;;;;;;;5048863;28;19953;-58
2023/10/19 07:45:31;;;;;;;;;;;;;;;;;;5054219;28;19908;-59
2023/10/19 07:47:57;;;;;;;;;;;;;;;;;;5054588;28;20007;-58
2023/10/19 07:50:22;;;;;;;;;;;;;;;;;;5053148;28;20430;-60
2023/10/19 07:52:48;;;;;;;;;;;;;;;;;;5054323;28;19937;-58
2023/10/19 07:55:15;;;;;;;;;;;;;;;;;;5053745;28;19924;-58
2023/10/19 07:57:41;;;;;;;;;;;;;;;;;;5049817;28;19959;-58
2023/10/19 08:00:08;;;;;;;;;;;;;;;;;;5053478;28;20337;-58
2023/10/19 08:02:34;;;;;;;;;;;;;;;;;;5054495;28;19916;-58
2023/10/19 08:05:02;;;;;;;;;;;;;;;;;;5052467;28;19948;-59
2023/10/19 08:07:28;;;;;;;;;;;;;;;;;;5050987;28;20033;-58
2023/10/19 08:09:55;;;;;;;;;;;;;;;;;;5045256;28;20019;-58
2023/10/19 08:12:22;;;;;;;;;;;;;;;;;;5042213;28;19913;-58
2023/10/19 08:14:48;;;;;;;;;;;;;;;;;;5046247;28;19924;-58
2023/10/19 08:17:14;;;;;;;;;;;;;;;;;;5057124;28;19913;-59
2023/10/19 08:19:40;;;;;;;;;;;;;;;;;;5046630;28;19952;-58
2023/10/19 08:22:07;;;;;;;;;;;;;;;;;;5050434;28;20386;-59
2023/10/19 08:24:35;;;;;;;;;;;;;;;;;;5050227;28;20404;-58
2023/10/19 08:27:00;;;;;;;;;;;;;;;;;;5052647;28;19920;-59
2023/10/19 08:29:26;;;;;;;;;;;;;;;;;;5051956;28;19913;-58
2023/10/19 08:31:52;;;;;;;;;;;;;;;;;;5052773;28;20333;-58
2023/10/19 08:34:20;;;;;;;;;;;;;;;;;;5052184;28;19948;-58
2023/10/19 08:36:46;;;;;;;;;;;;;;;;;;5050944;28;20003;-58
2023/10/19 08:39:13;;;;;;;;;;;;;;;;;;5049985;28;20377;-58
2023/10/19 08:41:39;;;;;;;;;;;;;;;;;;5035013;28;19927;-58
2023/10/19 08:44:10;;;;;;;;;;;;;;;;;;5048929;28;19920;-59
2023/10/19 08:46:36;;;;;;;;;;;;;;;;;;5040583;28;20387;-58
2023/10/19 08:49:02;;;;;;;;;;;;;;;;;;5049264;28;19916;-59
2023/10/19 08:51:29;;;;;;;;;;;;;;;;;;5047303;28;19924;-58
2023/10/19 08:53:54;;;;;;;;;;;;;;;;;;5044013;28;20356;-59
2023/10/19 08:56:23;;;;;;;;;;;;;;;;;;5049565;28;20007;-58
2023/10/19 08:58:49;;;;;;;;;;;;;;;;;;5049238;28;19917;-58
2023/10/19 09:01:15;;;;;;;;;;;;;;;;;;5047759;28;19977;-58
2023/10/19 09:03:41;;;;;;;;;;;;;;;;;;5052467;28;19913;-58
2023/10/19 09:06:07;;;;;;;;;;;;;;;;;;5050100;28;19932;-59
2023/10/19 09:08:39;;;;;;;;;;;;;;;;;;5051351;28;20401;-58
2023/10/19 09:11:05;;;;;;;;;;;;;;;;;;5046201;28;20607;-58
2023/10/19 09:13:32;;;;;;;;;;;;;;;;;;5049154;28;19912;-61
2023/10/19 09:15:58;;;;;;;;;;;;;;;;;;5052276;28;19908;-61
2023/10/19 09:18:24;;;;;;;;;;;;;;;;;;5049593;28;19920;-61
2023/10/19 09:20:53;;;;;;;;;;;;;;;;;;5051983;28;20372;-62
2023/10/19 09:23:18;;;;;;;;;;;;;;;;;;5046334;28;20381;-60
2023/10/19 09:25:44;;;;;;;;;;;;;;;;;;5050322;28;19955;-61
2023/10/19 09:28:13;;;;;;;;;;;;;;;;;;5051250;28;19912;-61
2023/10/19 09:30:39;;;;;;;;;;;;;;;;;;5049094;28;19952;-61
2023/10/19 09:33:06;;;;;;;;;;;;;;;;;;5050966;28;19998;-58
2023/10/19 09:35:32;;;;;;;;;;;;;;;;;;5050921;28;19923;-61
2023/10/19 09:38:00;;;;;;;;;;;;;;;;;;5051793;28;20301;-61
2023/10/19 09:40:29;;;;;;;;;;;;;;;;;;5051675;28;20019;-61
2023/10/19 09:42:55;;;;;;;;;;;;;;;;;;5046214;28;19964;-61
2023/10/19 09:45:23;;;;;;;;;;;;;;;;;;5045667;28;19948;-61
2023/10/19 09:47:49;;;;;;;;;;;;;;;;;;5051145;28;19931;-62
2023/10/19 09:50:15;;;;;;;;;;;;;;;;;;5050636;28;19944;-61
2023/10/19 09:52:41;;;;;;;;;;;;;;;;;;5050146;28;20031;-61
2023/10/19 09:55:08;;;;;;;;;;;;;;;;;;5049740;28;19917;-61
2023/10/19 09:57:34;;;;;;;;;;;;;;;;;;5049198;28;19921;-61
2023/10/19 09:59:59;;;;;;;;;;;;;;;;;;5044928;28;19942;-60
2023/10/19 10:02:25;;;;;;;;;;;;;;;;;;5050015;28;19948;-61
2023/10/19 10:04:51;;;;;;;;;;;;;;;;;;5050226;28;19916;-61
2023/10/19 10:07:17;;;;;;;;;;;;;;;;;;5049121;28;19917;-61
2023/10/19 10:09:44;;;;;;;;;;;;;;;;;;5049618;28;19958;-62
2023/10/19 10:12:10;;;;;;;;;;;;;;;;;;5057694;28;19917;-60
2023/10/19 10:14:35;;;;;;;;;;;;;;;;;;5046354;28;19948;-61
2023/10/19 10:17:02;;;;;;;;;;;;;;;;;;5043107;28;19941;-60
2023/10/19 10:19:27;;;;;;;;;;;;;;;;;;5046306;28;20375;-61
2023/10/19 10:21:53;;;;;;;;;;;;;;;;;;5039905;28;19916;-61
2023/10/19 10:24:19;;;;;;;;;;;;;;;;;;5056590;28;19928;-61
2023/10/19 10:26:45;;;;;;;;;;;;;;;;;;5039329;28;19919;-61
2023/10/19 10:29:14;;;;;;;;;;;;;;;;;;5051284;28;19952;-61
2023/10/19 10:31:40;;;;;;;;;;;;;;;;;;5050634;28;19919;-59
2023/10/19 10:34:06;;;;;;;;;;;;;;;;;;5051329;28;19909;-61
2023/10/19 10:36:32;;;;;;;;;;;;;;;;;;5050108;28;20435;-61
2023/10/19 10:38:58;;;;;;;;;;;;;;;;;;5046336;28;20066;-61
2023/10/19 10:41:29;;;;;;;;;;;;;;;;;;5054401;28;20408;-61
2023/10/19 10:43:55;;;;;;;;;;;;;;;;;;5043955;28;19991;-60
2023/10/19 10:46:21;;;;;;;;;;;;;;;;;;5046755;28;19913;-59
2023/10/19 10:48:48;;;;;;;;;;;;;;;;;;5051188;28;20289;-59
2023/10/19 10:51:15;;;;;;;;;;;;;;;;;;5043049;28;19916;-58
2023/10/19 10:53:41;;;;;;;;;;;;;;;;;;5049946;28;19917;-58
2023/10/19 10:56:07;;;;;;;;;;;;;;;;;;5050436;28;20454;-59
2023/10/19 10:58:33;;;;;;;;;;;;;;;;;;5051317;28;19924;-59
2023/10/19 11:00:59;;;;;;;;;;;;;;;;;;5049334;28;19961;-60
2023/10/19 11:03:29;;;;;;;;;;;;;;;;;;5048890;28;19956;-57
2023/10/19 11:05:55;;;;;;;;;;;;;;;;;;5049977;28;20432;-58
2023/10/19 11:08:21;;;;;;;;;;;;;;;;;;5051216;28;19909;-58
2023/10/19 11:10:47;;;;;;;;;;;;;;;;;;5051041;28;19967;-58
2023/10/19 11:13:13;;;;;;;;;;;;;;;;;;5052210;28;19924;-58
2023/10/19 11:15:39;;;;;;;;;;;;;;;;;;5054183;28;20326;-58
2023/10/19 11:18:07;;;;;;;;;;;;;;;;;;5054871;28;20103;-59
2023/10/19 11:20:33;;;;;;;;;;;;;;;;;;5046539;28;19917;-58
2023/10/19 11:23:02;;;;;;;;;;;;;;;;;;5054724;28;19927;-58
2023/10/19 11:25:28;;;;;;;;;;;;;;;;;;5053849;28;19942;-59
2023/10/19 11:27:54;;;;;;;;;;;;;;;;;;5054912;28;20362;-59
2023/10/19 11:30:20;;;;;;;;;;;;;;;;;;5054500;28;19944;-58
2023/10/19 11:32:46;;;;;;;;;;;;;;;;;;5054613;28;19913;-58
2023/10/19 11:35:12;;;;;;;;;;;;;;;;;;5054546;28;20056;-58
2023/10/19 11:37:38;;;;;;;;;;;;;;;;;;5053170;28;19939;-59
2023/10/19 11:40:04;;;;;;;;;;;;;;;;;;5054334;28;20348;-58
2023/10/19 11:42:30;;;;;;;;;;;;;;;;;;5052637;28;20000;-59
2023/10/19 11:44:56;;;;;;;;;;;;;;;;;;5053093;28;20070;-59
2023/10/19 11:47:22;;;;;;;;;;;;;;;;;;5053953;28;19956;-59
2023/10/19 11:49:48;;;;;;;;;;;;;;;;;;5053807;28;20050;-59
2023/10/19 11:52:14;;;;;;;;;;;;;;;;;;5046865;28;19924;-61
2023/10/19 11:54:40;;;;;;;;;;;;;;;;;;5040945;28;20019;-61
2023/10/19 11:57:06;;;;;;;;;;;;;;;;;;5044695;28;20000;-61
2023/10/19 11:59:32;;;;;;;;;;;;;;;;;;5054027;28;20287;-60
2023/10/19 12:02:00;;;;;;;;;;;;;;;;;;5049022;28;19923;-61
2023/10/19 12:04:26;;;;;;;;;;;;;;;;;;5053664;28;20284;-61
2023/10/19 12:06:53;;;;;;;;;;;;;;;;;;5054371;28;19912;-61
2023/10/19 12:09:24;;;;;;;;;;;;;;;;;;5049813;28;19967;-61
2023/10/19 12:11:50;;;;;;;;;;;;;;;;;;5052163;28;19981;-61
2023/10/19 12:14:16;;;;;;;;;;;;;;;;;;5049505;28;19913;-61
2023/10/19 12:16:42;;;;;;;;;;;;;;;;;;5052285;28;19967;-61
2023/10/19 12:19:08;;;;;;;;;;;;;;;;;;5053479;28;19909;-61
2023/10/19 12:21:36;;;;;;;;;;;;;;;;;;5053859;28;20230;-61
2023/10/19 12:24:04;;;;;;;;;;;;;;;;;;5050844;28;19971;-61
2023/10/19 12:26:30;;;;;;;;;;;;;;;;;;5053715;28;19912;-60
2023/10/19 12:28:56;;;;;;;;;;;;;;;;;;5049402;28;19956;-61
2023/10/19 12:31:23;;;;;;;;;;;;;;;;;;5053341;28;19916;-61
2023/10/19 12:33:49;;;;;;;;;;;;;;;;;;5048670;28;19913;-61
2023/10/19 12:38:52;;;;;;;;;;;;;;;;;;5052832;28;19924;-61
2023/10/19 12:41:18;;;;;;;;;;;;;;;;;;5052746;28;19944;-61
2023/10/19 12:43:46;;;;;;;;;;;;;;;;;;5045371;28;20419;-61
2023/10/19 12:46:13;;;;;;;;;;;;;;;;;;5048480;28;19970;-61
2023/10/19 12:48:39;;;;;;;;;;;;;;;;;;5048033;28;19978;-61
2023/10/19 12:51:11;;;;;;;;;;;;;;;;;;5037072;28;19913;-61
2023/10/19 12:53:38;;;;;;;;;;;;;;;;;;5053471;28;19913;-62
2023/10/19 12:56:04;;;;;;;;;;;;;;;;;;5049115;28;21090;-61
2023/10/19 12:58:31;;;;;;;;;;;;;;;;;;5051190;28;19916;-61
2023/10/19 13:00:58;;;;;;;;;;;;;;;;;;5051833;28;19916;-61
2023/10/19 13:03:27;;;;;;;;;;;;;;;;;;5042728;28;20012;-61
2023/10/19 13:05:53;;;;;;;;;;;;;;;;;;5050248;28;20309;-61
2023/10/19 13:08:19;;;;;;;;;;;;;;;;;;5054082;28;19909;-61
2023/10/19 13:10:45;;;;;;;;;;;;;;;;;;5050420;28;20280;-61
2023/10/19 13:13:14;;;;;;;;;;;;;;;;;;5052937;28;19919;-61
2023/10/19 13:15:41;;;;;;;;;;;;;;;;;;5052591;28;19927;-61
2023/10/19 13:18:07;;;;;;;;;;;;;;;;;;5053071;28;19909;-61
2023/10/19 13:20:36;;;;;;;;;;;;;;;;;;5052073;28;19919;-61
2023/10/19 13:23:05;;;;;;;;;;;;;;;;;;5050821;28;19920;-61
2023/10/19 13:25:49;;;;;;;;;;;;;;;;;;5050639;28;20371;-61
2023/10/19 13:28:17;;;;;;;;;;;;;;;;;;5050670;28;19920;-62
2023/10/19 13:30:43;;;;;;;;;;;;;;;;;;5032560;28;19909;-61
2023/10/19 13:33:09;;;;;;;;;;;;;;;;;;5052567;28;19909;-61
2023/10/19 13:35:35;;;;;;;;;;;;;;;;;;5052047;28;20016;-61
2023/10/19 13:38:01;;;;;;;;;;;;;;;;;;5051103;28;20411;-61
2023/10/19 13:40:29;;;;;;;;;;;;;;;;;;5050346;28;19916;-64
2023/10/19 13:42:56;;;;;;;;;;;;;;;;;;5052307;28;19934;-61
2023/10/19 13:45:22;;;;;;;;;;;;;;;;;;5052447;28;19909;-63
2023/10/19 13:47:47;;;;;;;;;;;;;;;;;;5050337;28;19952;-61
2023/10/19 13:50:13;;;;;;;;;;;;;;;;;;5051384;28;19913;-61
2023/10/19 13:52:39;;;;;;;;;;;;;;;;;;5051915;28;19915;-61
2023/10/19 13:55:07;;;;;;;;;;;;;;;;;;5051356;28;20380;-61
2023/10/19 13:57:33;;;;;;;;;;;;;;;;;;5049784;28;19990;-61
2023/10/19 13:59:59;;;;;;;;;;;;;;;;;;5049593;28;19987;-62
2023/10/19 14:02:25;;;;;;;;;;;;;;;;;;5048421;28;19935;-58
2023/10/19 14:04:51;;;;;;;;;;;;;;;;;;5050197;28;20684;-59
2023/10/19 14:07:17;;;;;;;;;;;;;;;;;;5051834;28;20289;-58
2023/10/19 14:09:44;;;;;;;;;;;;;;;;;;5051496;28;19959;-58
2023/10/19 14:12:10;;;;;;;;;;;;;;;;;;5049892;28;20381;-59
2023/10/19 14:14:36;;;;;;;;;;;;;;;;;;5051629;28;20012;-58
2023/10/19 14:17:02;;;;;;;;;;;;;;;;;;5052083;28;19909;-59
2023/10/19 14:19:28;;;;;;;;;;;;;;;;;;5049816;28;19948;-58
2023/10/19 14:21:54;;;;;;;;;;;;;;;;;;5051819;28;20384;-58
2023/10/19 14:24:20;;;;;;;;;;;;;;;;;;5050703;28;19921;-58
2023/10/19 14:26:46;;;;;;;;;;;;;;;;;;5050829;28;19919;-59
2023/10/19 14:29:13;;;;;;;;;;;;;;;;;;5049742;28;20011;-58
2023/10/19 14:31:39;;;;;;;;;;;;;;;;;;5051348;28;19992;-58
2023/10/19 14:34:05;;;;;;;;;;;;;;;;;;5051591;28;19943;-58
2023/10/19 14:36:31;;;;;;;;;;;;;;;;;;5051491;28;19908;-58
2023/10/19 14:38:57;;;;;;;;;;;;;;;;;;5049030;28;20003;-59
2023/10/19 14:41:23;;;;;;;;;;;;;;;;;;5048938;28;20443;-58
2023/10/19 14:43:49;;;;;;;;;;;;;;;;;;5049423;28;20288;-58
2023/10/19 14:46:16;;;;;;;;;;;;;;;;;;5051238;28;19915;-58
2023/10/19 14:48:41;;;;;;;;;;;;;;;;;;5057876;28;20432;-58
2023/10/19 14:51:08;;;;;;;;;;;;;;;;;;5057619;28;19959;-58
2023/10/19 14:53:34;;;;;;;;;;;;;;;;;;5058063;28;19912;-58
2023/10/19 14:56:01;;;;;;;;;;;;;;;;;;5057824;28;19909;-59
2023/10/19 14:58:28;;;;;;;;;;;;;;;;;;5052678;28;19912;-58
2023/10/19 15:00:54;;;;;;;;;;;;;;;;;;5057573;28;19908;-58
2023/10/19 15:03:21;;;;;;;;;;;;;;;;;;5057895;28;19948;-58
2023/10/19 15:05:47;;;;;;;;;;;;;;;;;;5056660;28;20328;-58
2023/10/19 15:08:13;;;;;;;;;;;;;;;;;;5049147;28;19956;-59
2023/10/19 15:10:39;;;;;;;;;;;;;;;;;;5051037;28;20369;-58
2023/10/19 15:13:05;;;;;;;;;;;;;;;;;;5052560;28;19919;-58
2023/10/19 15:15:31;;;;;;;;;;;;;;;;;;5046711;28;19916;-59
2023/10/19 15:18:00;;;;;;;;;;;;;;;;;;5043654;28;19913;-59
2023/10/19 15:20:26;;;;;;;;;;;;;;;;;;5049425;28;20376;-58
2023/10/19 15:22:53;;;;;;;;;;;;;;;;;;5052925;28;19952;-59
2023/10/19 15:25:20;;;;;;;;;;;;;;;;;;5049019;28;19936;-58
2023/10/19 15:27:48;;;;;;;;;;;;;;;;;;5054970;28;20008;-58
2023/10/19 15:30:15;;;;;;;;;;;;;;;;;;5050325;28;19982;-58
2023/10/19 15:32:44;;;;;;;;;;;;;;;;;;5049697;28;19917;-59
2023/10/19 15:35:11;;;;;;;;;;;;;;;;;;5053161;28;22575;-58
2023/10/19 15:37:37;;;;;;;;;;;;;;;;;;5053478;28;19959;-58
2023/10/19 15:40:06;;;;;;;;;;;;;;;;;;5050875;28;19956;-59
2023/10/19 15:42:35;;;;;;;;;;;;;;;;;;5052273;28;19913;-58
2023/10/19 15:45:01;;;;;;;;;;;;;;;;;;5038815;28;19920;-58
2023/10/19 15:47:27;;;;;;;;;;;;;;;;;;5051754;28;20368;-58
2023/10/19 15:49:53;;;;;;;;;;;;;;;;;;5052428;28;20109;-58
2023/10/19 15:52:20;;;;;;;;;;;;;;;;;;5054800;28;19967;-59
2023/10/19 15:54:46;;;;;;;;;;;;;;;;;;5051047;28;19920;-58
2023/10/19 15:57:11;;;;;;;;;;;;;;;;;;5053300;28;19948;-59
2023/10/19 15:59:37;;;;;;;;;;;;;;;;;;5051494;28;19923;-58
2023/10/19 16:02:04;;;;;;;;;;;;;;;;;;5052602;28;19959;-59
2023/10/19 16:04:30;;;;;;;;;;;;;;;;;;5046244;28;19913;-59
2023/10/19 16:06:56;;;;;;;;;;;;;;;;;;5052726;28;19916;-58
2023/10/19 16:09:22;;;;;;;;;;;;;;;;;;5045854;28;19988;-59
2023/10/19 16:11:50;;;;;;;;;;;;;;;;;;5048023;28;19919;-58
2023/10/19 16:14:19;;;;;;;;;;;;;;;;;;5051685;28;19921;-58
2023/10/19 16:16:45;;;;;;;;;;;;;;;;;;5048287;28;19932;-59
2023/10/19 16:19:11;;;;;;;;;;;;;;;;;;5048724;28;19919;-59
2023/10/19 16:21:37;;;;;;;;;;;;;;;;;;5056477;28;20047;-60
2023/10/19 16:24:04;;;;;;;;;;;;;;;;;;5048776;28;19929;-59
2023/10/19 16:26:29;;;;;;;;;;;;;;;;;;5054202;28;19913;-60
2023/10/19 16:28:55;;;;;;;;;;;;;;;;;;5049724;28;19956;-59
2023/10/19 16:31:21;;;;;;;;;;;;;;;;;;5049749;28;20300;-60
2023/10/19 16:33:47;;;;;;;;;;;;;;;;;;5052310;28;19919;-59
2023/10/19 16:36:13;;;;;;;;;;;;;;;;;;5049065;28;19996;-59
2023/10/19 16:38:39;;;;;;;;;;;;;;;;;;5049456;28;19972;-59
2023/10/19 16:41:05;;;;;;;;;;;;;;;;;;5040919;28;19913;-59
2023/10/19 16:43:31;;;;;;;;;;;;;;;;;;5047288;28;19960;-59
2023/10/19 16:45:58;;;;;;;;;;;;;;;;;;5052598;28;20054;-59
2023/10/19 16:48:24;;;;;;;;;;;;;;;;;;5050518;28;20380;-59
2023/10/19 16:50:50;;;;;;;;;;;;;;;;;;5044301;28;19947;-59
2023/10/19 16:53:16;;;;;;;;;;;;;;;;;;5045437;28;20035;-60
2023/10/19 16:55:42;;;;;;;;;;;;;;;;;;5052182;28;20011;-59
2023/10/19 16:58:08;;;;;;;;;;;;;;;;;;5045554;28;19999;-59
2023/10/19 17:00:40;;;;;;;;;;;;;;;;;;5046465;28;19968;-59